sensor_id;sensor_type;location;lat;lon;timestamp;temperature;humidity
58568;DHT22;44354;46.192;-1.076;2022-12-18T00:00:23;-0.40;99.90
58568;DHT22;44354;46.192;-1.076;2022-12-18T00:02:51;-0.40;99.90
58568;DHT22;44354;46.192;-1.076;2022-12-18T00:05:16;-0.30;99.90
58568;DHT22;44354;46.192;-1.076;2022-12-18T00:07:42;-0.30;99.90
58568;DHT22;44354;46.192;-1.076;2022-12-18T00:10:08;-0.30;99.90
58568;DHT22;44354;46.192;-1.076;2022-12-18T00:12:34;-0.30;99.90
58568;DHT22;44354;46.192;-1.076;2022-12-18T00:15:18;-0.30;99.90
58568;DHT22;44354;46.192;-1.076;2022-12-18T00:17:46;-0.20;99.90
58568;DHT22;44354;46.192;-1.076;2022-12-18T00:20:15;-0.20;99.90
58568;DHT22;44354;46.192;-1.076;2022-12-18T00:22:45;-0.20;99.90
58568;DHT22;44354;46.192;-1.076;2022-12-18T00:25:18;-0.20;99.90
58568;DHT22;44354;46.192;-1.076;2022-12-18T00:27:44;-0.20;99.90
58568;DHT22;44354;46.192;-1.076;2022-12-18T00:30:17;-0.20;99.90
58568;DHT22;44354;46.192;-1.076;2022-12-18T00:33:04;-0.10;99.90
58568;DHT22;44354;46.192;-1.076;2022-12-18T00:35:38;-0.20;99.90
58568;DHT22;44354;46.192;-1.076;2022-12-18T00:38:13;-0.10;99.90
58568;DHT22;44354;46.192;-1.076;2022-12-18T00:41:12;-0.10;99.90
58568;DHT22;44354;46.192;-1.076;2022-12-18T00:44:12;-0.10;99.90
58568;DHT22;44354;46.192;-1.076;2022-12-18T00:47:40;0.00;99.90
58568;DHT22;44354;46.192;-1.076;2022-12-18T00:50:30;0.10;99.90
58568;DHT22;44354;46.192;-1.076;2022-12-18T00:53:11;0.10;99.90
58568;DHT22;44354;46.192;-1.076;2022-12-18T00:56:50;0.10;99.90
58568;DHT22;44354;46.192;-1.076;2022-12-18T00:59:19;0.20;99.90
58568;DHT22;44354;46.192;-1.076;2022-12-18T01:02:20;0.20;99.90
58568;DHT22;44354;46.192;-1.076;2022-12-18T01:04:48;0.30;99.90
58568;DHT22;44354;46.192;-1.076;2022-12-18T01:07:30;0.30;99.90
58568;DHT22;44354;46.192;-1.076;2022-12-18T01:10:51;0.30;99.90
58568;DHT22;44354;46.192;-1.076;2022-12-18T01:13:35;0.20;99.90
58568;DHT22;44354;46.192;-1.076;2022-12-18T01:16:31;0.20;99.90
58568;DHT22;44354;46.192;-1.076;2022-12-18T01:18:58;0.10;99.90
58568;DHT22;44354;46.192;-1.076;2022-12-18T01:21:52;0.00;99.90
58568;DHT22;44354;46.192;-1.076;2022-12-18T01:24:38;0.00;99.90
58568;DHT22;44354;46.192;-1.076;2022-12-18T01:27:16;-0.10;99.90
58568;DHT22;44354;46.192;-1.076;2022-12-18T01:29:42;-0.10;99.90
58568;DHT22;44354;46.192;-1.076;2022-12-18T01:32:14;-0.10;99.90
58568;DHT22;44354;46.192;-1.076;2022-12-18T01:34:55;-0.10;99.90
58568;DHT22;44354;46.192;-1.076;2022-12-18T01:37:53;-0.10;99.90
58568;DHT22;44354;46.192;-1.076;2022-12-18T01:40:38;0.00;99.90
58568;DHT22;44354;46.192;-1.076;2022-12-18T01:43:22;0.00;99.90
58568;DHT22;44354;46.192;-1.076;2022-12-18T01:45:49;0.00;99.90
58568;DHT22;44354;46.192;-1.076;2022-12-18T01:48:21;0.00;99.90
58568;DHT22;44354;46.192;-1.076;2022-12-18T01:50:55;0.00;99.90
58568;DHT22;44354;46.192;-1.076;2022-12-18T01:53:24;0.00;99.90
58568;DHT22;44354;46.192;-1.076;2022-12-18T01:55:55;-0.10;99.90
58568;DHT22;44354;46.192;-1.076;2022-12-18T01:58:35;-0.10;99.90
58568;DHT22;44354;46.192;-1.076;2022-12-18T02:01:11;-0.20;99.90
58568;DHT22;44354;46.192;-1.076;2022-12-18T02:03:44;-0.10;99.90
58568;DHT22;44354;46.192;-1.076;2022-12-18T02:09:47;-0.20;99.90
58568;DHT22;44354;46.192;-1.076;2022-12-18T02:12:24;-0.30;99.90
58568;DHT22;44354;46.192;-1.076;2022-12-18T02:15:13;-0.30;99.90
58568;DHT22;44354;46.192;-1.076;2022-12-18T02:18:55;-0.40;99.90
58568;DHT22;44354;46.192;-1.076;2022-12-18T02:22:13;-0.40;99.90
58568;DHT22;44354;46.192;-1.076;2022-12-18T02:27:49;-0.60;99.90
58568;DHT22;44354;46.192;-1.076;2022-12-18T02:30:18;-0.60;99.90
58568;DHT22;44354;46.192;-1.076;2022-12-18T02:32:49;-0.60;99.90
58568;DHT22;44354;46.192;-1.076;2022-12-18T02:35:20;-0.60;99.90
58568;DHT22;44354;46.192;-1.076;2022-12-18T02:37:48;-0.70;99.90
58568;DHT22;44354;46.192;-1.076;2022-12-18T02:40:17;-0.70;99.90
58568;DHT22;44354;46.192;-1.076;2022-12-18T02:42:44;-0.70;99.90
58568;DHT22;44354;46.192;-1.076;2022-12-18T02:45:10;-0.80;99.90
58568;DHT22;44354;46.192;-1.076;2022-12-18T02:47:45;-0.80;99.90
58568;DHT22;44354;46.192;-1.076;2022-12-18T02:50:22;-0.80;99.90
58568;DHT22;44354;46.192;-1.076;2022-12-18T02:58:29;-0.80;99.90
58568;DHT22;44354;46.192;-1.076;2022-12-18T03:03:55;-0.80;99.90
58568;DHT22;44354;46.192;-1.076;2022-12-18T03:06:35;-0.80;99.90
58568;DHT22;44354;46.192;-1.076;2022-12-18T03:09:07;-0.90;99.90
58568;DHT22;44354;46.192;-1.076;2022-12-18T03:11:37;-0.90;99.90
58568;DHT22;44354;46.192;-1.076;2022-12-18T03:14:23;-0.90;99.90
58568;DHT22;44354;46.192;-1.076;2022-12-18T03:17:00;-0.90;99.90
58568;DHT22;44354;46.192;-1.076;2022-12-18T03:19:28;-0.90;99.90
58568;DHT22;44354;46.192;-1.076;2022-12-18T03:21:57;-1.00;99.90
58568;DHT22;44354;46.192;-1.076;2022-12-18T03:24:28;-0.90;99.90
58568;DHT22;44354;46.192;-1.076;2022-12-18T03:26:58;-1.00;99.90
58568;DHT22;44354;46.192;-1.076;2022-12-18T03:29:35;-1.00;99.90
58568;DHT22;44354;46.192;-1.076;2022-12-18T03:32:06;-1.00;99.90
58568;DHT22;44354;46.192;-1.076;2022-12-18T03:34:35;-1.00;99.90
58568;DHT22;44354;46.192;-1.076;2022-12-18T03:37:03;-1.00;99.90
58568;DHT22;44354;46.192;-1.076;2022-12-18T03:39:30;-1.00;99.90
58568;DHT22;44354;46.192;-1.076;2022-12-18T03:42:06;-1.10;99.90
58568;DHT22;44354;46.192;-1.076;2022-12-18T03:52:41;-1.00;99.90
58568;DHT22;44354;46.192;-1.076;2022-12-18T03:55:09;-1.00;99.90
58568;DHT22;44354;46.192;-1.076;2022-12-18T03:57:35;-1.00;99.90
58568;DHT22;44354;46.192;-1.076;2022-12-18T04:00:07;-1.00;99.90
58568;DHT22;44354;46.192;-1.076;2022-12-18T04:02:35;-1.00;99.90
58568;DHT22;44354;46.192;-1.076;2022-12-18T04:05:06;-0.90;99.90
58568;DHT22;44354;46.192;-1.076;2022-12-18T04:07:36;-0.90;99.90
58568;DHT22;44354;46.192;-1.076;2022-12-18T04:10:03;-0.90;99.90
58568;DHT22;44354;46.192;-1.076;2022-12-18T04:12:32;-0.90;99.90
58568;DHT22;44354;46.192;-1.076;2022-12-18T04:14:57;-0.80;99.90
58568;DHT22;44354;46.192;-1.076;2022-12-18T04:17:23;-0.80;99.90
58568;DHT22;44354;46.192;-1.076;2022-12-18T04:19:49;-0.70;99.90
58568;DHT22;44354;46.192;-1.076;2022-12-18T04:22:15;-0.60;99.90
58568;DHT22;44354;46.192;-1.076;2022-12-18T04:24:41;-0.60;99.90
58568;DHT22;44354;46.192;-1.076;2022-12-18T04:27:17;-0.60;99.90
58568;DHT22;44354;46.192;-1.076;2022-12-18T04:29:46;-0.60;99.90
58568;DHT22;44354;46.192;-1.076;2022-12-18T04:32:15;-0.60;99.90
58568;DHT22;44354;46.192;-1.076;2022-12-18T04:34:42;-0.60;99.90
58568;DHT22;44354;46.192;-1.076;2022-12-18T04:37:08;-0.60;99.90
58568;DHT22;44354;46.192;-1.076;2022-12-18T04:39:44;-0.50;99.90
58568;DHT22;44354;46.192;-1.076;2022-12-18T04:42:28;-0.50;99.90
58568;DHT22;44354;46.192;-1.076;2022-12-18T04:45:09;-0.50;99.90
58568;DHT22;44354;46.192;-1.076;2022-12-18T04:47:37;-0.40;99.90
58568;DHT22;44354;46.192;-1.076;2022-12-18T04:50:22;-0.40;99.90
58568;DHT22;44354;46.192;-1.076;2022-12-18T04:52:48;-0.40;99.90
58568;DHT22;44354;46.192;-1.076;2022-12-18T04:55:14;-0.40;99.90
58568;DHT22;44354;46.192;-1.076;2022-12-18T04:57:46;-0.40;99.90
58568;DHT22;44354;46.192;-1.076;2022-12-18T05:00:14;-0.40;99.90
58568;DHT22;44354;46.192;-1.076;2022-12-18T05:03:11;-0.30;99.90
58568;DHT22;44354;46.192;-1.076;2022-12-18T05:05:38;-0.30;99.90
58568;DHT22;44354;46.192;-1.076;2022-12-18T05:08:11;-0.30;99.90
58568;DHT22;44354;46.192;-1.076;2022-12-18T05:11:05;-0.30;99.90
58568;DHT22;44354;46.192;-1.076;2022-12-18T05:13:37;-0.30;99.90
58568;DHT22;44354;46.192;-1.076;2022-12-18T05:16:15;-0.30;99.90
58568;DHT22;44354;46.192;-1.076;2022-12-18T05:18:54;-0.40;99.90
58568;DHT22;44354;46.192;-1.076;2022-12-18T05:21:22;-0.50;99.90
58568;DHT22;44354;46.192;-1.076;2022-12-18T05:23:51;-0.50;99.90
58568;DHT22;44354;46.192;-1.076;2022-12-18T05:27:02;-0.50;99.90
58568;DHT22;44354;46.192;-1.076;2022-12-18T05:30:17;-0.40;99.90
58568;DHT22;44354;46.192;-1.076;2022-12-18T05:32:54;-0.50;99.90
58568;DHT22;44354;46.192;-1.076;2022-12-18T05:35:54;-0.40;99.90
58568;DHT22;44354;46.192;-1.076;2022-12-18T05:38:42;-0.50;99.90
58568;DHT22;44354;46.192;-1.076;2022-12-18T05:41:08;-0.40;99.90
58568;DHT22;44354;46.192;-1.076;2022-12-18T05:43:38;-0.40;99.90
58568;DHT22;44354;46.192;-1.076;2022-12-18T05:46:17;-0.40;99.90
58568;DHT22;44354;46.192;-1.076;2022-12-18T05:48:47;-0.40;99.90
58568;DHT22;44354;46.192;-1.076;2022-12-18T05:51:15;-0.40;99.90
58568;DHT22;44354;46.192;-1.076;2022-12-18T05:53:45;-0.30;99.90
58568;DHT22;44354;46.192;-1.076;2022-12-18T05:56:15;-0.30;99.90
58568;DHT22;44354;46.192;-1.076;2022-12-18T05:58:56;-0.30;99.90
58568;DHT22;44354;46.192;-1.076;2022-12-18T06:01:51;-0.20;99.90
58568;DHT22;44354;46.192;-1.076;2022-12-18T06:04:20;-0.20;99.90
58568;DHT22;44354;46.192;-1.076;2022-12-18T06:07:08;-0.20;99.90
58568;DHT22;44354;46.192;-1.076;2022-12-18T06:09:42;-0.20;99.90
58568;DHT22;44354;46.192;-1.076;2022-12-18T06:12:08;-0.20;99.90
58568;DHT22;44354;46.192;-1.076;2022-12-18T06:14:36;-0.10;99.90
58568;DHT22;44354;46.192;-1.076;2022-12-18T06:17:02;-0.20;99.90
58568;DHT22;44354;46.192;-1.076;2022-12-18T06:19:29;-0.20;99.90
58568;DHT22;44354;46.192;-1.076;2022-12-18T06:21:56;-0.20;99.90
58568;DHT22;44354;46.192;-1.076;2022-12-18T06:24:24;-0.20;99.90
58568;DHT22;44354;46.192;-1.076;2022-12-18T06:26:51;-0.20;99.90
58568;DHT22;44354;46.192;-1.076;2022-12-18T06:29:32;-0.20;99.90
58568;DHT22;44354;46.192;-1.076;2022-12-18T06:32:00;-0.10;99.90
58568;DHT22;44354;46.192;-1.076;2022-12-18T06:34:40;-0.10;99.90
58568;DHT22;44354;46.192;-1.076;2022-12-18T06:37:28;0.00;99.90
58568;DHT22;44354;46.192;-1.076;2022-12-18T06:39:59;0.00;99.90
58568;DHT22;44354;46.192;-1.076;2022-12-18T06:42:35;0.00;99.90
58568;DHT22;44354;46.192;-1.076;2022-12-18T06:45:01;0.00;99.90
58568;DHT22;44354;46.192;-1.076;2022-12-18T06:47:52;0.10;99.90
58568;DHT22;44354;46.192;-1.076;2022-12-18T06:50:19;0.10;99.90
58568;DHT22;44354;46.192;-1.076;2022-12-18T06:52:49;0.10;99.90
58568;DHT22;44354;46.192;-1.076;2022-12-18T06:55:15;0.10;99.90
58568;DHT22;44354;46.192;-1.076;2022-12-18T06:57:42;0.10;99.90
58568;DHT22;44354;46.192;-1.076;2022-12-18T07:00:08;0.10;99.90
58568;DHT22;44354;46.192;-1.076;2022-12-18T07:02:34;0.20;99.90
58568;DHT22;44354;46.192;-1.076;2022-12-18T07:05:01;0.20;99.90
58568;DHT22;44354;46.192;-1.076;2022-12-18T07:07:27;0.20;99.90
58568;DHT22;44354;46.192;-1.076;2022-12-18T07:09:52;0.20;99.90
58568;DHT22;44354;46.192;-1.076;2022-12-18T07:12:21;0.20;99.90
58568;DHT22;44354;46.192;-1.076;2022-12-18T07:14:47;0.20;99.90
58568;DHT22;44354;46.192;-1.076;2022-12-18T07:17:13;0.30;99.90
58568;DHT22;44354;46.192;-1.076;2022-12-18T07:19:40;0.30;99.90
58568;DHT22;44354;46.192;-1.076;2022-12-18T07:22:05;0.40;99.90
58568;DHT22;44354;46.192;-1.076;2022-12-18T07:24:33;0.40;99.90
58568;DHT22;44354;46.192;-1.076;2022-12-18T07:26:59;0.40;99.90
58568;DHT22;44354;46.192;-1.076;2022-12-18T07:29:25;0.40;99.90
58568;DHT22;44354;46.192;-1.076;2022-12-18T07:31:52;0.30;99.90
58568;DHT22;44354;46.192;-1.076;2022-12-18T07:34:19;0.30;99.90
58568;DHT22;44354;46.192;-1.076;2022-12-18T07:36:45;0.40;99.90
58568;DHT22;44354;46.192;-1.076;2022-12-18T07:39:11;0.30;99.90
58568;DHT22;44354;46.192;-1.076;2022-12-18T07:41:37;0.40;99.90
58568;DHT22;44354;46.192;-1.076;2022-12-18T07:44:04;0.50;99.90
58568;DHT22;44354;46.192;-1.076;2022-12-18T07:46:30;0.40;99.90
58568;DHT22;44354;46.192;-1.076;2022-12-18T07:48:55;0.40;99.90
58568;DHT22;44354;46.192;-1.076;2022-12-18T07:51:23;0.50;99.90
58568;DHT22;44354;46.192;-1.076;2022-12-18T07:53:48;0.50;99.90
58568;DHT22;44354;46.192;-1.076;2022-12-18T07:56:14;0.50;99.90
58568;DHT22;44354;46.192;-1.076;2022-12-18T07:58:40;0.50;99.90
58568;DHT22;44354;46.192;-1.076;2022-12-18T08:01:08;0.50;99.90
58568;DHT22;44354;46.192;-1.076;2022-12-18T08:03:34;0.50;99.90
58568;DHT22;44354;46.192;-1.076;2022-12-18T08:06:05;0.50;99.90
58568;DHT22;44354;46.192;-1.076;2022-12-18T08:08:32;0.50;99.90
58568;DHT22;44354;46.192;-1.076;2022-12-18T08:10:58;0.50;99.90
58568;DHT22;44354;46.192;-1.076;2022-12-18T08:13:25;0.50;99.90
58568;DHT22;44354;46.192;-1.076;2022-12-18T08:16:02;0.60;99.90
58568;DHT22;44354;46.192;-1.076;2022-12-18T08:18:33;0.60;99.90
58568;DHT22;44354;46.192;-1.076;2022-12-18T08:21:10;0.70;99.90
58568;DHT22;44354;46.192;-1.076;2022-12-18T08:23:52;0.80;99.90
58568;DHT22;44354;46.192;-1.076;2022-12-18T08:26:30;0.80;99.90
58568;DHT22;44354;46.192;-1.076;2022-12-18T08:31:34;1.00;99.90
58568;DHT22;44354;46.192;-1.076;2022-12-18T08:34:01;1.00;99.90
58568;DHT22;44354;46.192;-1.076;2022-12-18T08:42:28;1.20;99.90
58568;DHT22;44354;46.192;-1.076;2022-12-18T08:48:08;1.30;99.90
58568;DHT22;44354;46.192;-1.076;2022-12-18T08:50:34;1.40;99.90
58568;DHT22;44354;46.192;-1.076;2022-12-18T08:53:03;1.40;99.90
58568;DHT22;44354;46.192;-1.076;2022-12-18T08:55:39;1.40;99.90
58568;DHT22;44354;46.192;-1.076;2022-12-18T08:58:05;1.50;99.90
58568;DHT22;44354;46.192;-1.076;2022-12-18T09:00:31;1.50;99.90
58568;DHT22;44354;46.192;-1.076;2022-12-18T09:02:56;1.50;99.90
58568;DHT22;44354;46.192;-1.076;2022-12-18T09:05:22;1.50;99.90
58568;DHT22;44354;46.192;-1.076;2022-12-18T09:07:48;1.60;99.90
58568;DHT22;44354;46.192;-1.076;2022-12-18T09:10:13;1.70;99.90
58568;DHT22;44354;46.192;-1.076;2022-12-18T09:12:39;1.70;99.90
58568;DHT22;44354;46.192;-1.076;2022-12-18T09:15:05;1.80;99.90
58568;DHT22;44354;46.192;-1.076;2022-12-18T09:17:31;1.90;99.90
58568;DHT22;44354;46.192;-1.076;2022-12-18T09:19:57;2.00;99.90
58568;DHT22;44354;46.192;-1.076;2022-12-18T09:22:22;2.00;99.90
58568;DHT22;44354;46.192;-1.076;2022-12-18T09:24:48;2.10;99.90
58568;DHT22;44354;46.192;-1.076;2022-12-18T09:27:14;2.20;99.90
58568;DHT22;44354;46.192;-1.076;2022-12-18T09:29:40;2.20;99.90
58568;DHT22;44354;46.192;-1.076;2022-12-18T09:32:05;2.30;99.90
58568;DHT22;44354;46.192;-1.076;2022-12-18T09:34:31;2.40;99.90
58568;DHT22;44354;46.192;-1.076;2022-12-18T09:36:57;2.50;99.90
58568;DHT22;44354;46.192;-1.076;2022-12-18T09:39:22;2.50;99.90
58568;DHT22;44354;46.192;-1.076;2022-12-18T09:41:57;2.60;99.90
58568;DHT22;44354;46.192;-1.076;2022-12-18T09:44:29;2.70;99.90
58568;DHT22;44354;46.192;-1.076;2022-12-18T09:47:18;2.70;99.90
58568;DHT22;44354;46.192;-1.076;2022-12-18T09:49:47;2.80;99.90
58568;DHT22;44354;46.192;-1.076;2022-12-18T09:52:35;2.80;99.90
58568;DHT22;44354;46.192;-1.076;2022-12-18T09:55:15;2.80;99.90
58568;DHT22;44354;46.192;-1.076;2022-12-18T09:57:49;2.90;99.90
58568;DHT22;44354;46.192;-1.076;2022-12-18T10:00:19;2.90;99.90
58568;DHT22;44354;46.192;-1.076;2022-12-18T10:02:47;2.90;99.90
58568;DHT22;44354;46.192;-1.076;2022-12-18T10:05:14;3.00;99.90
58568;DHT22;44354;46.192;-1.076;2022-12-18T10:07:53;3.00;99.90
58568;DHT22;44354;46.192;-1.076;2022-12-18T10:10:46;3.10;99.90
58568;DHT22;44354;46.192;-1.076;2022-12-18T10:13:31;3.20;99.90
58568;DHT22;44354;46.192;-1.076;2022-12-18T10:16:08;3.30;99.90
58568;DHT22;44354;46.192;-1.076;2022-12-18T10:25:15;3.30;99.90
58568;DHT22;44354;46.192;-1.076;2022-12-18T10:27:42;3.40;99.90
58568;DHT22;44354;46.192;-1.076;2022-12-18T10:30:16;3.40;99.90
58568;DHT22;44354;46.192;-1.076;2022-12-18T10:32:42;3.40;99.90
58568;DHT22;44354;46.192;-1.076;2022-12-18T10:35:21;3.50;99.90
58568;DHT22;44354;46.192;-1.076;2022-12-18T10:40:34;3.40;99.90
58568;DHT22;44354;46.192;-1.076;2022-12-18T10:43:14;3.40;99.90
58568;DHT22;44354;46.192;-1.076;2022-12-18T10:45:40;3.40;99.90
58568;DHT22;44354;46.192;-1.076;2022-12-18T10:48:21;3.40;99.90
58568;DHT22;44354;46.192;-1.076;2022-12-18T10:50:51;3.40;99.90
58568;DHT22;44354;46.192;-1.076;2022-12-18T10:53:25;3.40;99.90
58568;DHT22;44354;46.192;-1.076;2022-12-18T10:55:53;3.40;99.90
58568;DHT22;44354;46.192;-1.076;2022-12-18T10:58:29;3.40;99.90
58568;DHT22;44354;46.192;-1.076;2022-12-18T11:01:17;3.50;99.90
58568;DHT22;44354;46.192;-1.076;2022-12-18T11:06:22;3.60;99.90
58568;DHT22;44354;46.192;-1.076;2022-12-18T11:09:26;3.60;99.90
58568;DHT22;44354;46.192;-1.076;2022-12-18T11:11:55;3.60;99.90
58568;DHT22;44354;46.192;-1.076;2022-12-18T11:14:33;3.60;99.90
58568;DHT22;44354;46.192;-1.076;2022-12-18T11:17:00;3.70;99.90
58568;DHT22;44354;46.192;-1.076;2022-12-18T11:19:32;3.80;99.90
58568;DHT22;44354;46.192;-1.076;2022-12-18T11:22:00;3.90;99.90
58568;DHT22;44354;46.192;-1.076;2022-12-18T11:24:34;3.90;99.90
58568;DHT22;44354;46.192;-1.076;2022-12-18T11:27:02;3.90;99.90
58568;DHT22;44354;46.192;-1.076;2022-12-18T11:29:35;3.90;99.90
58568;DHT22;44354;46.192;-1.076;2022-12-18T11:32:37;3.90;99.90
58568;DHT22;44354;46.192;-1.076;2022-12-18T11:35:20;4.00;99.90
58568;DHT22;44354;46.192;-1.076;2022-12-18T11:37:54;4.00;99.90
58568;DHT22;44354;46.192;-1.076;2022-12-18T11:40:35;4.10;99.90
58568;DHT22;44354;46.192;-1.076;2022-12-18T11:43:14;4.10;99.90
58568;DHT22;44354;46.192;-1.076;2022-12-18T11:45:51;4.10;99.90
58568;DHT22;44354;46.192;-1.076;2022-12-18T11:48:57;4.20;99.90
58568;DHT22;44354;46.192;-1.076;2022-12-18T11:54:16;4.20;99.90
58568;DHT22;44354;46.192;-1.076;2022-12-18T11:56:51;4.30;99.90
58568;DHT22;44354;46.192;-1.076;2022-12-18T12:18:22;4.60;99.90
58568;DHT22;44354;46.192;-1.076;2022-12-18T12:20:55;4.70;99.90
58568;DHT22;44354;46.192;-1.076;2022-12-18T12:23:30;4.80;99.90
58568;DHT22;44354;46.192;-1.076;2022-12-18T12:26:11;4.80;99.90
58568;DHT22;44354;46.192;-1.076;2022-12-18T12:28:54;4.90;99.90
58568;DHT22;44354;46.192;-1.076;2022-12-18T12:36:26;5.10;99.90
58568;DHT22;44354;46.192;-1.076;2022-12-18T12:38:58;5.10;99.90
58568;DHT22;44354;46.192;-1.076;2022-12-18T12:41:27;5.20;99.90
58568;DHT22;44354;46.192;-1.076;2022-12-18T12:44:24;5.40;99.90
58568;DHT22;44354;46.192;-1.076;2022-12-18T12:46:54;5.50;99.90
58568;DHT22;44354;46.192;-1.076;2022-12-18T12:49:25;5.70;99.90
58568;DHT22;44354;46.192;-1.076;2022-12-18T12:52:03;5.90;99.90
58568;DHT22;44354;46.192;-1.076;2022-12-18T12:54:31;6.10;99.90
58568;DHT22;44354;46.192;-1.076;2022-12-18T13:07:59;6.20;99.90
58568;DHT22;44354;46.192;-1.076;2022-12-18T13:10:32;6.20;99.90
58568;DHT22;44354;46.192;-1.076;2022-12-18T13:13:02;6.20;99.90
58568;DHT22;44354;46.192;-1.076;2022-12-18T13:18:25;6.20;99.90
58568;DHT22;44354;46.192;-1.076;2022-12-18T13:25:51;6.50;99.90
58568;DHT22;44354;46.192;-1.076;2022-12-18T13:30:58;6.60;99.90
58568;DHT22;44354;46.192;-1.076;2022-12-18T13:38:24;6.70;99.90
58568;DHT22;44354;46.192;-1.076;2022-12-18T13:40:59;6.60;99.90
58568;DHT22;44354;46.192;-1.076;2022-12-18T13:43:29;6.60;99.90
58568;DHT22;44354;46.192;-1.076;2022-12-18T13:48:36;6.60;99.90
58568;DHT22;44354;46.192;-1.076;2022-12-18T13:51:09;6.70;99.90
58568;DHT22;44354;46.192;-1.076;2022-12-18T13:53:48;6.70;99.90
58568;DHT22;44354;46.192;-1.076;2022-12-18T13:56:21;6.70;99.90
58568;DHT22;44354;46.192;-1.076;2022-12-18T13:59:10;6.70;99.90
58568;DHT22;44354;46.192;-1.076;2022-12-18T14:01:42;6.90;99.90
58568;DHT22;44354;46.192;-1.076;2022-12-18T14:04:32;6.90;99.90
58568;DHT22;44354;46.192;-1.076;2022-12-18T14:07:06;6.90;99.90
58568;DHT22;44354;46.192;-1.076;2022-12-18T14:10:02;7.00;99.90
58568;DHT22;44354;46.192;-1.076;2022-12-18T14:12:31;7.00;99.90
58568;DHT22;44354;46.192;-1.076;2022-12-18T14:17:47;7.10;99.90
58568;DHT22;44354;46.192;-1.076;2022-12-18T14:20:15;7.20;99.90
58568;DHT22;44354;46.192;-1.076;2022-12-18T14:22:49;7.20;99.90
58568;DHT22;44354;46.192;-1.076;2022-12-18T14:25:21;7.30;99.90
58568;DHT22;44354;46.192;-1.076;2022-12-18T14:27:51;7.40;99.90
58568;DHT22;44354;46.192;-1.076;2022-12-18T14:33:09;7.50;99.90
58568;DHT22;44354;46.192;-1.076;2022-12-18T14:35:41;7.50;99.90
58568;DHT22;44354;46.192;-1.076;2022-12-18T14:38:51;7.60;99.90
58568;DHT22;44354;46.192;-1.076;2022-12-18T14:41:12;7.60;99.90
58568;DHT22;44354;46.192;-1.076;2022-12-18T14:43:40;7.70;99.90
58568;DHT22;44354;46.192;-1.076;2022-12-18T14:46:27;7.70;99.90
58568;DHT22;44354;46.192;-1.076;2022-12-18T14:48:53;7.70;99.90
58568;DHT22;44354;46.192;-1.076;2022-12-18T14:51:22;7.70;99.90
58568;DHT22;44354;46.192;-1.076;2022-12-18T14:54:02;7.70;99.90
58568;DHT22;44354;46.192;-1.076;2022-12-18T14:56:32;7.70;99.90
58568;DHT22;44354;46.192;-1.076;2022-12-18T14:59:13;7.80;99.90
58568;DHT22;44354;46.192;-1.076;2022-12-18T15:04:39;7.80;99.90
58568;DHT22;44354;46.192;-1.076;2022-12-18T15:07:22;7.80;99.90
58568;DHT22;44354;46.192;-1.076;2022-12-18T15:10:12;7.80;99.90
58568;DHT22;44354;46.192;-1.076;2022-12-18T15:12:43;7.90;99.90
58568;DHT22;44354;46.192;-1.076;2022-12-18T15:20:33;7.90;99.90
58568;DHT22;44354;46.192;-1.076;2022-12-18T15:23:05;8.00;99.90
58568;DHT22;44354;46.192;-1.076;2022-12-18T15:25:37;7.90;99.90
58568;DHT22;44354;46.192;-1.076;2022-12-18T15:28:19;7.90;99.90
58568;DHT22;44354;46.192;-1.076;2022-12-18T15:33:42;8.00;99.90
58568;DHT22;44354;46.192;-1.076;2022-12-18T15:36:13;8.00;99.90
58568;DHT22;44354;46.192;-1.076;2022-12-18T15:38:39;8.00;99.90
58568;DHT22;44354;46.192;-1.076;2022-12-18T15:41:05;8.00;99.90
58568;DHT22;44354;46.192;-1.076;2022-12-18T15:43:31;8.00;99.90
58568;DHT22;44354;46.192;-1.076;2022-12-18T15:46:01;8.00;99.90
58568;DHT22;44354;46.192;-1.076;2022-12-18T15:48:27;8.00;99.90
58568;DHT22;44354;46.192;-1.076;2022-12-18T15:50:54;8.10;99.90
58568;DHT22;44354;46.192;-1.076;2022-12-18T15:53:23;8.00;99.90
58568;DHT22;44354;46.192;-1.076;2022-12-18T15:55:49;8.00;99.90
58568;DHT22;44354;46.192;-1.076;2022-12-18T15:58:33;8.00;99.90
58568;DHT22;44354;46.192;-1.076;2022-12-18T16:00:59;8.00;99.90
58568;DHT22;44354;46.192;-1.076;2022-12-18T16:03:26;8.00;99.90
58568;DHT22;44354;46.192;-1.076;2022-12-18T16:05:51;7.90;99.90
58568;DHT22;44354;46.192;-1.076;2022-12-18T16:08:17;7.90;99.90
58568;DHT22;44354;46.192;-1.076;2022-12-18T16:10:43;7.90;99.90
58568;DHT22;44354;46.192;-1.076;2022-12-18T16:13:13;7.90;99.90
58568;DHT22;44354;46.192;-1.076;2022-12-18T16:15:41;7.90;99.90
58568;DHT22;44354;46.192;-1.076;2022-12-18T16:18:06;7.90;99.90
58568;DHT22;44354;46.192;-1.076;2022-12-18T16:20:32;8.00;99.90
58568;DHT22;44354;46.192;-1.076;2022-12-18T16:22:58;8.00;99.90
58568;DHT22;44354;46.192;-1.076;2022-12-18T16:25:26;8.00;99.90
58568;DHT22;44354;46.192;-1.076;2022-12-18T16:27:52;8.00;99.90
58568;DHT22;44354;46.192;-1.076;2022-12-18T16:30:26;8.10;99.90
58568;DHT22;44354;46.192;-1.076;2022-12-18T16:33:02;8.10;99.90
58568;DHT22;44354;46.192;-1.076;2022-12-18T16:35:28;8.10;99.90
58568;DHT22;44354;46.192;-1.076;2022-12-18T16:37:53;8.20;99.90
58568;DHT22;44354;46.192;-1.076;2022-12-18T16:40:19;8.20;99.90
58568;DHT22;44354;46.192;-1.076;2022-12-18T16:42:45;8.10;99.90
58568;DHT22;44354;46.192;-1.076;2022-12-18T16:45:14;8.20;99.90
58568;DHT22;44354;46.192;-1.076;2022-12-18T16:47:40;8.20;99.90
58568;DHT22;44354;46.192;-1.076;2022-12-18T16:50:07;8.30;99.90
58568;DHT22;44354;46.192;-1.076;2022-12-18T16:52:33;8.30;99.90
58568;DHT22;44354;46.192;-1.076;2022-12-18T16:54:59;8.30;99.90
58568;DHT22;44354;46.192;-1.076;2022-12-18T16:57:25;8.40;99.90
58568;DHT22;44354;46.192;-1.076;2022-12-18T16:59:51;8.50;99.90
58568;DHT22;44354;46.192;-1.076;2022-12-18T17:02:19;8.50;99.90
58568;DHT22;44354;46.192;-1.076;2022-12-18T17:04:45;8.50;99.90
58568;DHT22;44354;46.192;-1.076;2022-12-18T17:07:15;8.50;99.90
58568;DHT22;44354;46.192;-1.076;2022-12-18T17:09:41;8.50;99.90
58568;DHT22;44354;46.192;-1.076;2022-12-18T17:12:07;8.50;99.90
58568;DHT22;44354;46.192;-1.076;2022-12-18T17:14:34;8.60;99.90
58568;DHT22;44354;46.192;-1.076;2022-12-18T17:17:00;8.60;99.90
58568;DHT22;44354;46.192;-1.076;2022-12-18T17:19:27;8.50;99.90
58568;DHT22;44354;46.192;-1.076;2022-12-18T17:21:53;8.50;99.90
58568;DHT22;44354;46.192;-1.076;2022-12-18T17:24:21;8.50;99.90
58568;DHT22;44354;46.192;-1.076;2022-12-18T17:26:47;8.50;99.90
58568;DHT22;44354;46.192;-1.076;2022-12-18T17:29:15;8.40;99.90
58568;DHT22;44354;46.192;-1.076;2022-12-18T17:31:42;8.40;99.90
58568;DHT22;44354;46.192;-1.076;2022-12-18T17:34:09;8.40;99.90
58568;DHT22;44354;46.192;-1.076;2022-12-18T17:36:35;8.40;99.90
58568;DHT22;44354;46.192;-1.076;2022-12-18T17:39:03;8.40;99.90
58568;DHT22;44354;46.192;-1.076;2022-12-18T17:41:30;8.40;99.90
58568;DHT22;44354;46.192;-1.076;2022-12-18T17:44:01;8.40;99.90
58568;DHT22;44354;46.192;-1.076;2022-12-18T17:46:29;8.40;99.90
58568;DHT22;44354;46.192;-1.076;2022-12-18T17:48:56;8.40;99.90
58568;DHT22;44354;46.192;-1.076;2022-12-18T17:51:22;8.40;99.90
58568;DHT22;44354;46.192;-1.076;2022-12-18T17:53:48;8.40;99.90
58568;DHT22;44354;46.192;-1.076;2022-12-18T17:56:17;8.40;99.90
58568;DHT22;44354;46.192;-1.076;2022-12-18T17:58:43;8.40;99.90
58568;DHT22;44354;46.192;-1.076;2022-12-18T18:01:12;8.40;99.90